sensor_id;sensor_type;location;lat;lon;timestamp;temperature;humidity
46492;DHT22;32206;51.446;6.792;2023-06-05T00:00:18;17.40;1.00
46492;DHT22;32206;51.446;6.792;2023-06-05T00:02:44;17.30;1.00
46492;DHT22;32206;51.446;6.792;2023-06-05T00:05:09;17.20;33.20
46492;DHT22;32206;51.446;6.792;2023-06-05T00:07:36;17.20;99.90
46492;DHT22;32206;51.446;6.792;2023-06-05T00:10:06;17.10;99.90
46492;DHT22;32206;51.446;6.792;2023-06-05T00:12:31;17.10;99.90
46492;DHT22;32206;51.446;6.792;2023-06-05T00:14:57;17.10;99.90
46492;DHT22;32206;51.446;6.792;2023-06-05T00:17:23;17.10;99.90
46492;DHT22;32206;51.446;6.792;2023-06-05T00:19:50;17.10;1.00
46492;DHT22;32206;51.446;6.792;2023-06-05T00:22:16;17.00;1.00
46492;DHT22;32206;51.446;6.792;2023-06-05T00:24:41;16.90;1.00
46492;DHT22;32206;51.446;6.792;2023-06-05T00:27:07;16.90;99.90
46492;DHT22;32206;51.446;6.792;2023-06-05T00:29:33;16.80;1.00
46492;DHT22;32206;51.446;6.792;2023-06-05T00:31:58;16.80;1.00
46492;DHT22;32206;51.446;6.792;2023-06-05T00:34:24;16.70;1.00
46492;DHT22;32206;51.446;6.792;2023-06-05T00:36:50;16.70;99.90
46492;DHT22;32206;51.446;6.792;2023-06-05T00:39:16;16.70;99.90
46492;DHT22;32206;51.446;6.792;2023-06-05T00:41:41;16.70;99.90
46492;DHT22;32206;51.446;6.792;2023-06-05T00:44:07;16.60;99.90
46492;DHT22;32206;51.446;6.792;2023-06-05T00:46:33;16.60;99.90
46492;DHT22;32206;51.446;6.792;2023-06-05T00:48:59;16.50;99.90
46492;DHT22;32206;51.446;6.792;2023-06-05T00:51:25;16.50;1.00
46492;DHT22;32206;51.446;6.792;2023-06-05T00:53:51;16.40;49.30
46492;DHT22;32206;51.446;6.792;2023-06-05T00:56:17;16.30;99.90
46492;DHT22;32206;51.446;6.792;2023-06-05T00:58:47;16.20;99.90
46492;DHT22;32206;51.446;6.792;2023-06-05T01:01:13;16.30;99.90
46492;DHT22;32206;51.446;6.792;2023-06-05T01:03:40;16.30;1.00
46492;DHT22;32206;51.446;6.792;2023-06-05T01:06:06;16.20;99.90
46492;DHT22;32206;51.446;6.792;2023-06-05T01:08:33;16.20;1.00
46492;DHT22;32206;51.446;6.792;2023-06-05T01:14:37;16.10;99.90
46492;DHT22;32206;51.446;6.792;2023-06-05T01:16:49;16.00;99.90
46492;DHT22;32206;51.446;6.792;2023-06-05T01:19:23;16.00;1.00
46492;DHT22;32206;51.446;6.792;2023-06-05T01:21:58;16.00;99.90
46492;DHT22;32206;51.446;6.792;2023-06-05T01:24:24;16.00;99.90
46492;DHT22;32206;51.446;6.792;2023-06-05T01:27:14;16.00;1.00
46492;DHT22;32206;51.446;6.792;2023-06-05T01:32:23;15.90;99.90
46492;DHT22;32206;51.446;6.792;2023-06-05T01:34:53;15.80;99.90
46492;DHT22;32206;51.446;6.792;2023-06-05T01:40:41;15.80;1.00
46492;DHT22;32206;51.446;6.792;2023-06-05T01:43:07;15.70;99.90
46492;DHT22;32206;51.446;6.792;2023-06-05T01:45:36;15.70;99.90
46492;DHT22;32206;51.446;6.792;2023-06-05T01:54:47;15.60;1.00
46492;DHT22;32206;51.446;6.792;2023-06-05T01:57:15;15.50;99.90
46492;DHT22;32206;51.446;6.792;2023-06-05T01:59:41;15.50;1.00
46492;DHT22;32206;51.446;6.792;2023-06-05T02:02:08;15.50;99.90
46492;DHT22;32206;51.446;6.792;2023-06-05T02:04:34;15.50;99.90
46492;DHT22;32206;51.446;6.792;2023-06-05T02:07:00;15.40;99.90
46492;DHT22;32206;51.446;6.792;2023-06-05T02:09:29;15.40;1.00
46492;DHT22;32206;51.446;6.792;2023-06-05T02:11:58;15.40;21.80
46492;DHT22;32206;51.446;6.792;2023-06-05T02:14:32;15.30;99.90
46492;DHT22;32206;51.446;6.792;2023-06-05T02:17:01;15.30;99.90
46492;DHT22;32206;51.446;6.792;2023-06-05T02:19:27;15.30;99.90
46492;DHT22;32206;51.446;6.792;2023-06-05T02:21:53;15.20;99.90
46492;DHT22;32206;51.446;6.792;2023-06-05T02:24:19;15.10;99.90
46492;DHT22;32206;51.446;6.792;2023-06-05T02:26:45;15.10;1.00
46492;DHT22;32206;51.446;6.792;2023-06-05T02:29:11;15.10;1.00
46492;DHT22;32206;51.446;6.792;2023-06-05T02:31:37;15.10;1.00
46492;DHT22;32206;51.446;6.792;2023-06-05T02:34:03;15.00;1.00
46492;DHT22;32206;51.446;6.792;2023-06-05T02:36:29;14.90;21.80
46492;DHT22;32206;51.446;6.792;2023-06-05T02:38:59;15.00;98.50
46492;DHT22;32206;51.446;6.792;2023-06-05T02:41:25;14.90;1.00
46492;DHT22;32206;51.446;6.792;2023-06-05T02:43:52;14.90;27.50
46492;DHT22;32206;51.446;6.792;2023-06-05T02:46:20;14.80;99.90
46492;DHT22;32206;51.446;6.792;2023-06-05T02:48:46;14.90;99.90
46492;DHT22;32206;51.446;6.792;2023-06-05T02:51:12;14.80;87.30
46492;DHT22;32206;51.446;6.792;2023-06-05T02:53:38;14.80;99.90
46492;DHT22;32206;51.446;6.792;2023-06-05T02:56:04;14.80;99.90
46492;DHT22;32206;51.446;6.792;2023-06-05T02:58:30;14.80;99.90
46492;DHT22;32206;51.446;6.792;2023-06-05T03:01:01;14.80;99.90
46492;DHT22;32206;51.446;6.792;2023-06-05T03:03:29;14.70;99.90
46492;DHT22;32206;51.446;6.792;2023-06-05T03:09:26;14.60;99.90
46492;DHT22;32206;51.446;6.792;2023-06-05T03:11:52;14.50;99.90
46492;DHT22;32206;51.446;6.792;2023-06-05T03:14:17;14.50;99.90
46492;DHT22;32206;51.446;6.792;2023-06-05T03:16:43;14.40;99.90
46492;DHT22;32206;51.446;6.792;2023-06-05T03:22:31;14.40;99.90
46492;DHT22;32206;51.446;6.792;2023-06-05T03:28:20;14.40;99.90
46492;DHT22;32206;51.446;6.792;2023-06-05T03:30:46;14.20;99.90
46492;DHT22;32206;51.446;6.792;2023-06-05T03:33:13;14.20;99.90
46492;DHT22;32206;51.446;6.792;2023-06-05T03:35:41;14.20;99.90
46492;DHT22;32206;51.446;6.792;2023-06-05T03:38:08;14.20;99.90
46492;DHT22;32206;51.446;6.792;2023-06-05T03:40:34;14.20;99.90
46492;DHT22;32206;51.446;6.792;2023-06-05T03:43:00;14.20;99.90
46492;DHT22;32206;51.446;6.792;2023-06-05T03:45:25;14.20;99.90
46492;DHT22;32206;51.446;6.792;2023-06-05T03:47:53;14.10;99.90
46492;DHT22;32206;51.446;6.792;2023-06-05T03:50:20;14.10;99.90
46492;DHT22;32206;51.446;6.792;2023-06-05T03:52:46;14.10;99.90
46492;DHT22;32206;51.446;6.792;2023-06-05T03:55:20;14.10;99.90
46492;DHT22;32206;51.446;6.792;2023-06-05T03:57:49;14.10;99.90
46492;DHT22;32206;51.446;6.792;2023-06-05T04:00:15;14.00;99.90
46492;DHT22;32206;51.446;6.792;2023-06-05T04:02:42;14.00;99.90
46492;DHT22;32206;51.446;6.792;2023-06-05T04:05:08;14.00;99.90
46492;DHT22;32206;51.446;6.792;2023-06-05T04:07:38;13.90;1.00
46492;DHT22;32206;51.446;6.792;2023-06-05T04:10:04;13.90;1.00
46492;DHT22;32206;51.446;6.792;2023-06-05T04:12:30;13.90;1.00
46492;DHT22;32206;51.446;6.792;2023-06-05T04:14:55;13.90;1.00
46492;DHT22;32206;51.446;6.792;2023-06-05T04:17:21;13.90;1.00
46492;DHT22;32206;51.446;6.792;2023-06-05T04:19:47;14.00;1.00
46492;DHT22;32206;51.446;6.792;2023-06-05T04:22:12;13.90;1.00
46492;DHT22;32206;51.446;6.792;2023-06-05T04:24:38;13.90;99.90
46492;DHT22;32206;51.446;6.792;2023-06-05T04:27:05;13.90;1.00
46492;DHT22;32206;51.446;6.792;2023-06-05T04:29:30;14.00;1.00
46492;DHT22;32206;51.446;6.792;2023-06-05T04:31:58;14.00;1.00
46492;DHT22;32206;51.446;6.792;2023-06-05T04:34:23;14.00;1.00
46492;DHT22;32206;51.446;6.792;2023-06-05T04:36:49;14.00;99.90
46492;DHT22;32206;51.446;6.792;2023-06-05T04:39:17;14.00;1.00
46492;DHT22;32206;51.446;6.792;2023-06-05T04:41:44;14.00;1.00
46492;DHT22;32206;51.446;6.792;2023-06-05T04:44:12;14.00;1.00
46492;DHT22;32206;51.446;6.792;2023-06-05T04:46:38;14.00;99.90
46492;DHT22;32206;51.446;6.792;2023-06-05T04:49:06;14.00;1.00
46492;DHT22;32206;51.446;6.792;2023-06-05T04:51:32;14.00;99.90
46492;DHT22;32206;51.446;6.792;2023-06-05T04:53:58;14.00;1.00
46492;DHT22;32206;51.446;6.792;2023-06-05T04:56:25;14.00;1.00
46492;DHT22;32206;51.446;6.792;2023-06-05T04:58:51;14.10;1.00
46492;DHT22;32206;51.446;6.792;2023-06-05T05:01:18;14.10;99.90
46492;DHT22;32206;51.446;6.792;2023-06-05T05:03:45;14.10;1.00
46492;DHT22;32206;51.446;6.792;2023-06-05T05:06:16;14.10;1.00
46492;DHT22;32206;51.446;6.792;2023-06-05T05:08:43;14.20;1.00
46492;DHT22;32206;51.446;6.792;2023-06-05T05:11:12;14.20;1.00
46492;DHT22;32206;51.446;6.792;2023-06-05T05:13:38;14.20;1.00
46492;DHT22;32206;51.446;6.792;2023-06-05T05:16:04;14.30;1.00
46492;DHT22;32206;51.446;6.792;2023-06-05T05:18:30;14.30;99.90
46492;DHT22;32206;51.446;6.792;2023-06-05T05:20:56;14.30;99.90
46492;DHT22;32206;51.446;6.792;2023-06-05T05:23:22;14.40;99.90
46492;DHT22;32206;51.446;6.792;2023-06-05T05:25:48;14.50;99.90
46492;DHT22;32206;51.446;6.792;2023-06-05T05:28:14;14.50;1.00
46492;DHT22;32206;51.446;6.792;2023-06-05T05:30:39;14.50;99.90
46492;DHT22;32206;51.446;6.792;2023-06-05T05:33:06;14.60;99.90
46492;DHT22;32206;51.446;6.792;2023-06-05T05:35:31;14.80;99.90
46492;DHT22;32206;51.446;6.792;2023-06-05T05:37:57;14.70;99.90
46492;DHT22;32206;51.446;6.792;2023-06-05T05:40:23;14.80;99.90
46492;DHT22;32206;51.446;6.792;2023-06-05T05:42:48;14.80;99.90
46492;DHT22;32206;51.446;6.792;2023-06-05T05:45:14;14.80;99.90
46492;DHT22;32206;51.446;6.792;2023-06-05T05:47:40;15.00;99.90
46492;DHT22;32206;51.446;6.792;2023-06-05T05:50:06;15.00;99.90
46492;DHT22;32206;51.446;6.792;2023-06-05T05:52:32;15.00;99.90
46492;DHT22;32206;51.446;6.792;2023-06-05T05:54:58;15.10;99.90
46492;DHT22;32206;51.446;6.792;2023-06-05T05:57:25;15.10;99.90
46492;DHT22;32206;51.446;6.792;2023-06-05T06:00:01;15.20;99.90
46492;DHT22;32206;51.446;6.792;2023-06-05T06:02:28;15.30;99.90
46492;DHT22;32206;51.446;6.792;2023-06-05T06:04:53;15.30;1.00
46492;DHT22;32206;51.446;6.792;2023-06-05T06:07:19;15.40;99.90
46492;DHT22;32206;51.446;6.792;2023-06-05T06:09:45;15.40;99.90
46492;DHT22;32206;51.446;6.792;2023-06-05T06:12:11;15.50;42.30
46492;DHT22;32206;51.446;6.792;2023-06-05T06:14:41;15.60;69.50
46492;DHT22;32206;51.446;6.792;2023-06-05T06:17:19;15.70;1.00
46492;DHT22;32206;51.446;6.792;2023-06-05T06:19:45;15.80;99.90
46492;DHT22;32206;51.446;6.792;2023-06-05T06:22:14;15.80;1.00
46492;DHT22;32206;51.446;6.792;2023-06-05T06:24:41;15.90;1.00
46492;DHT22;32206;51.446;6.792;2023-06-05T06:27:07;15.90;99.90
46492;DHT22;32206;51.446;6.792;2023-06-05T06:29:34;16.00;19.40
46492;DHT22;32206;51.446;6.792;2023-06-05T06:32:00;16.10;99.90
46492;DHT22;32206;51.446;6.792;2023-06-05T06:34:26;16.10;99.90
46492;DHT22;32206;51.446;6.792;2023-06-05T06:36:51;16.20;99.90
46492;DHT22;32206;51.446;6.792;2023-06-05T06:39:17;16.30;1.00
46492;DHT22;32206;51.446;6.792;2023-06-05T06:41:47;16.40;99.90
46492;DHT22;32206;51.446;6.792;2023-06-05T06:44:13;16.50;99.90
46492;DHT22;32206;51.446;6.792;2023-06-05T06:46:39;16.50;1.00
46492;DHT22;32206;51.446;6.792;2023-06-05T06:49:04;16.50;99.90
46492;DHT22;32206;51.446;6.792;2023-06-05T06:51:31;16.50;59.40
46492;DHT22;32206;51.446;6.792;2023-06-05T06:53:58;16.50;99.90
46492;DHT22;32206;51.446;6.792;2023-06-05T06:56:23;16.60;31.50
46492;DHT22;32206;51.446;6.792;2023-06-05T06:58:52;16.70;1.00
46492;DHT22;32206;51.446;6.792;2023-06-05T07:01:18;16.80;99.90
46492;DHT22;32206;51.446;6.792;2023-06-05T07:03:45;16.60;1.00
46492;DHT22;32206;51.446;6.792;2023-06-05T07:06:10;17.00;99.90
46492;DHT22;32206;51.446;6.792;2023-06-05T07:08:37;17.00;99.90
46492;DHT22;32206;51.446;6.792;2023-06-05T07:11:03;17.10;99.90
46492;DHT22;32206;51.446;6.792;2023-06-05T07:13:29;17.20;13.70
46492;DHT22;32206;51.446;6.792;2023-06-05T07:15:54;17.30;99.90
46492;DHT22;32206;51.446;6.792;2023-06-05T07:18:21;17.40;99.90
46492;DHT22;32206;51.446;6.792;2023-06-05T07:20:46;17.50;99.90
46492;DHT22;32206;51.446;6.792;2023-06-05T07:23:14;17.60;99.90
46492;DHT22;32206;51.446;6.792;2023-06-05T07:25:40;17.70;1.00
46492;DHT22;32206;51.446;6.792;2023-06-05T07:28:09;17.80;99.90
46492;DHT22;32206;51.446;6.792;2023-06-05T07:30:37;17.80;99.90
46492;DHT22;32206;51.446;6.792;2023-06-05T07:33:02;17.80;1.00
46492;DHT22;32206;51.446;6.792;2023-06-05T07:35:29;17.80;99.90
46492;DHT22;32206;51.446;6.792;2023-06-05T07:37:54;17.80;99.90
46492;DHT22;32206;51.446;6.792;2023-06-05T07:40:20;17.90;99.90
46492;DHT22;32206;51.446;6.792;2023-06-05T07:42:46;17.90;1.00
46492;DHT22;32206;51.446;6.792;2023-06-05T07:45:12;18.00;99.90
46492;DHT22;32206;51.446;6.792;2023-06-05T07:47:38;18.10;99.90
46492;DHT22;32206;51.446;6.792;2023-06-05T07:50:04;18.20;99.90
46492;DHT22;32206;51.446;6.792;2023-06-05T07:52:31;18.40;5.10
46492;DHT22;32206;51.446;6.792;2023-06-05T07:54:57;18.50;1.00
46492;DHT22;32206;51.446;6.792;2023-06-05T07:57:23;18.70;1.00
46492;DHT22;32206;51.446;6.792;2023-06-05T07:59:52;18.70;1.00
46492;DHT22;32206;51.446;6.792;2023-06-05T08:02:19;18.60;99.90
46492;DHT22;32206;51.446;6.792;2023-06-05T08:04:45;18.70;99.90
46492;DHT22;32206;51.446;6.792;2023-06-05T08:07:11;18.70;99.90
46492;DHT22;32206;51.446;6.792;2023-06-05T08:09:37;18.90;1.00
46492;DHT22;32206;51.446;6.792;2023-06-05T08:12:03;19.00;99.90
46492;DHT22;32206;51.446;6.792;2023-06-05T08:14:29;19.00;99.90
46492;DHT22;32206;51.446;6.792;2023-06-05T08:16:55;19.20;99.90
46492;DHT22;32206;51.446;6.792;2023-06-05T08:19:21;19.20;99.90
46492;DHT22;32206;51.446;6.792;2023-06-05T08:21:50;19.20;99.90
46492;DHT22;32206;51.446;6.792;2023-06-05T08:24:16;19.30;99.90
46492;DHT22;32206;51.446;6.792;2023-06-05T08:30:04;19.50;99.90
46492;DHT22;32206;51.446;6.792;2023-06-05T08:32:30;19.70;99.90
46492;DHT22;32206;51.446;6.792;2023-06-05T08:34:56;19.90;37.30
46492;DHT22;32206;51.446;6.792;2023-06-05T08:41:15;20.10;8.80
46492;DHT22;32206;51.446;6.792;2023-06-05T08:43:42;20.30;1.00
46492;DHT22;32206;51.446;6.792;2023-06-05T08:46:10;20.10;1.00
46492;DHT22;32206;51.446;6.792;2023-06-05T08:48:45;20.30;1.00
46492;DHT22;32206;51.446;6.792;2023-06-05T08:51:15;20.40;1.00
46492;DHT22;32206;51.446;6.792;2023-06-05T08:53:43;20.40;1.00
46492;DHT22;32206;51.446;6.792;2023-06-05T08:56:12;20.50;1.00
46492;DHT22;32206;51.446;6.792;2023-06-05T08:58:38;20.60;1.00
46492;DHT22;32206;51.446;6.792;2023-06-05T09:01:04;20.70;1.00
46492;DHT22;32206;51.446;6.792;2023-06-05T09:03:32;20.70;1.00
46492;DHT22;32206;51.446;6.792;2023-06-05T09:05:59;20.80;1.00
46492;DHT22;32206;51.446;6.792;2023-06-05T09:08:33;20.80;1.00
46492;DHT22;32206;51.446;6.792;2023-06-05T09:13:49;20.90;1.00
46492;DHT22;32206;51.446;6.792;2023-06-05T09:16:19;21.00;1.00
46492;DHT22;32206;51.446;6.792;2023-06-05T09:18:55;21.10;1.00
46492;DHT22;32206;51.446;6.792;2023-06-05T09:21:23;21.20;1.00
46492;DHT22;32206;51.446;6.792;2023-06-05T09:24:14;21.30;1.00
46492;DHT22;32206;51.446;6.792;2023-06-05T09:26:59;21.50;1.00
46492;DHT22;32206;51.446;6.792;2023-06-05T09:29:27;21.60;1.00
46492;DHT22;32206;51.446;6.792;2023-06-05T09:31:55;21.60;1.00
46492;DHT22;32206;51.446;6.792;2023-06-05T09:34:22;21.60;1.00
46492;DHT22;32206;51.446;6.792;2023-06-05T09:36:48;21.80;1.00
46492;DHT22;32206;51.446;6.792;2023-06-05T09:39:15;21.90;1.00
46492;DHT22;32206;51.446;6.792;2023-06-05T09:41:48;22.10;99.90
46492;DHT22;32206;51.446;6.792;2023-06-05T09:44:18;22.20;99.90
46492;DHT22;32206;51.446;6.792;2023-06-05T09:49:17;22.30;99.90
46492;DHT22;32206;51.446;6.792;2023-06-05T09:51:43;22.40;99.90
46492;DHT22;32206;51.446;6.792;2023-06-05T09:54:10;22.40;99.90
46492;DHT22;32206;51.446;6.792;2023-06-05T09:56:36;22.50;99.90
46492;DHT22;32206;51.446;6.792;2023-06-05T10:02:35;22.60;99.90
46492;DHT22;32206;51.446;6.792;2023-06-05T10:05:03;22.70;99.90
46492;DHT22;32206;51.446;6.792;2023-06-05T10:07:32;22.90;99.90
46492;DHT22;32206;51.446;6.792;2023-06-05T10:10:00;23.10;99.90
46492;DHT22;32206;51.446;6.792;2023-06-05T10:12:27;23.30;99.90
46492;DHT22;32206;51.446;6.792;2023-06-05T10:14:54;23.40;99.90
46492;DHT22;32206;51.446;6.792;2023-06-05T10:17:23;23.50;99.90
46492;DHT22;32206;51.446;6.792;2023-06-05T10:19:50;23.60;99.90
46492;DHT22;32206;51.446;6.792;2023-06-05T10:22:17;23.60;99.90
46492;DHT22;32206;51.446;6.792;2023-06-05T10:24:53;23.60;99.90
46492;DHT22;32206;51.446;6.792;2023-06-05T10:39:17;24.20;99.90
46492;DHT22;32206;51.446;6.792;2023-06-05T10:41:45;24.30;99.90
46492;DHT22;32206;51.446;6.792;2023-06-05T10:44:15;24.50;99.90
46492;DHT22;32206;51.446;6.792;2023-06-05T10:46:40;24.50;99.90
46492;DHT22;32206;51.446;6.792;2023-06-05T10:49:51;24.60;99.90
46492;DHT22;32206;51.446;6.792;2023-06-05T10:52:35;24.80;99.90
46492;DHT22;32206;51.446;6.792;2023-06-05T10:55:01;24.80;99.90
46492;DHT22;32206;51.446;6.792;2023-06-05T10:58:07;24.90;99.90
46492;DHT22;32206;51.446;6.792;2023-06-05T11:00:34;25.00;99.90
46492;DHT22;32206;51.446;6.792;2023-06-05T11:03:00;25.20;99.90
46492;DHT22;32206;51.446;6.792;2023-06-05T11:05:28;25.30;99.90
46492;DHT22;32206;51.446;6.792;2023-06-05T11:08:22;25.40;99.90
46492;DHT22;32206;51.446;6.792;2023-06-05T11:11:06;25.40;99.90
46492;DHT22;32206;51.446;6.792;2023-06-05T11:13:57;25.50;99.90
46492;DHT22;32206;51.446;6.792;2023-06-05T11:16:55;25.60;99.90
46492;DHT22;32206;51.446;6.792;2023-06-05T11:22:06;25.90;99.90
46492;DHT22;32206;51.446;6.792;2023-06-05T11:24:38;26.10;99.90
46492;DHT22;32206;51.446;6.792;2023-06-05T11:27:05;26.10;99.90
46492;DHT22;32206;51.446;6.792;2023-06-05T11:29:32;26.20;99.90
46492;DHT22;32206;51.446;6.792;2023-06-05T11:31:58;26.20;99.90
46492;DHT22;32206;51.446;6.792;2023-06-05T11:34:24;26.30;99.90
46492;DHT22;32206;51.446;6.792;2023-06-05T11:36:51;26.40;99.90
46492;DHT22;32206;51.446;6.792;2023-06-05T11:39:16;26.60;99.90
46492;DHT22;32206;51.446;6.792;2023-06-05T11:41:48;26.60;99.90
46492;DHT22;32206;51.446;6.792;2023-06-05T11:44:14;26.60;99.90
46492;DHT22;32206;51.446;6.792;2023-06-05T11:46:42;26.70;99.90
46492;DHT22;32206;51.446;6.792;2023-06-05T11:49:27;26.80;99.90
46492;DHT22;32206;51.446;6.792;2023-06-05T11:51:53;27.10;99.90
46492;DHT22;32206;51.446;6.792;2023-06-05T11:54:31;27.20;99.90
46492;DHT22;32206;51.446;6.792;2023-06-05T12:03:45;27.00;99.90
46492;DHT22;32206;51.446;6.792;2023-06-05T12:06:12;27.00;99.90
46492;DHT22;32206;51.446;6.792;2023-06-05T12:08:39;27.10;99.90
46492;DHT22;32206;51.446;6.792;2023-06-05T12:11:26;27.10;99.90
46492;DHT22;32206;51.446;6.792;2023-06-05T12:13:54;27.10;99.90
46492;DHT22;32206;51.446;6.792;2023-06-05T12:16:40;27.20;99.90
46492;DHT22;32206;51.446;6.792;2023-06-05T12:19:18;27.20;99.90
46492;DHT22;32206;51.446;6.792;2023-06-05T12:21:47;27.40;99.90
46492;DHT22;32206;51.446;6.792;2023-06-05T12:24:13;27.40;99.90
46492;DHT22;32206;51.446;6.792;2023-06-05T12:26:53;27.50;99.90
46492;DHT22;32206;51.446;6.792;2023-06-05T12:29:23;27.60;99.90
46492;DHT22;32206;51.446;6.792;2023-06-05T12:31:50;27.60;99.90
46492;DHT22;32206;51.446;6.792;2023-06-05T12:34:16;27.50;99.90
46492;DHT22;32206;51.446;6.792;2023-06-05T12:36:43;27.40;99.90
46492;DHT22;32206;51.446;6.792;2023-06-05T12:39:13;27.50;99.90
46492;DHT22;32206;51.446;6.792;2023-06-05T12:41:40;27.60;99.90
46492;DHT22;32206;51.446;6.792;2023-06-05T12:44:06;27.50;99.90
46492;DHT22;32206;51.446;6.792;2023-06-05T12:49:58;27.60;99.90
46492;DHT22;32206;51.446;6.792;2023-06-05T12:52:24;27.60;99.90
46492;DHT22;32206;51.446;6.792;2023-06-05T12:58:18;27.80;99.90
46492;DHT22;32206;51.446;6.792;2023-06-05T13:00:43;27.90;99.90
46492;DHT22;32206;51.446;6.792;2023-06-05T13:03:09;27.80;99.90
46492;DHT22;32206;51.446;6.792;2023-06-05T13:05:35;27.80;99.90
46492;DHT22;32206;51.446;6.792;2023-06-05T13:08:01;27.80;99.90
46492;DHT22;32206;51.446;6.792;2023-06-05T13:10:28;27.80;99.90
46492;DHT22;32206;51.446;6.792;2023-06-05T13:12:54;27.80;99.90
46492;DHT22;32206;51.446;6.792;2023-06-05T13:15:19;27.80;99.90
46492;DHT22;32206;51.446;6.792;2023-06-05T13:17:45;27.70;99.90
46492;DHT22;32206;51.446;6.792;2023-06-05T13:20:13;27.60;99.90
46492;DHT22;32206;51.446;6.792;2023-06-05T13:22:40;27.70;99.90
46492;DHT22;32206;51.446;6.792;2023-06-05T13:25:06;27.80;99.90
46492;DHT22;32206;51.446;6.792;2023-06-05T13:27:33;27.80;99.90
46492;DHT22;32206;51.446;6.792;2023-06-05T13:29:58;27.90;99.90
46492;DHT22;32206;51.446;6.792;2023-06-05T13:32:24;27.90;99.90
46492;DHT22;32206;51.446;6.792;2023-06-05T13:34:50;27.90;99.90
46492;DHT22;32206;51.446;6.792;2023-06-05T13:37:16;28.00;99.90
46492;DHT22;32206;51.446;6.792;2023-06-05T13:39:42;28.00;99.90
46492;DHT22;32206;51.446;6.792;2023-06-05T13:42:08;27.90;99.90
46492;DHT22;32206;51.446;6.792;2023-06-05T13:44:46;27.90;99.90
46492;DHT22;32206;51.446;6.792;2023-06-05T13:47:11;27.90;99.90
46492;DHT22;32206;51.446;6.792;2023-06-05T13:49:37;28.00;99.90
46492;DHT22;32206;51.446;6.792;2023-06-05T13:52:03;28.00;99.90
46492;DHT22;32206;51.446;6.792;2023-06-05T13:54:29;28.10;99.90
46492;DHT22;32206;51.446;6.792;2023-06-05T13:56:54;28.10;99.90
46492;DHT22;32206;51.446;6.792;2023-06-05T13:59:20;28.00;99.90
46492;DHT22;32206;51.446;6.792;2023-06-05T14:01:46;28.00;99.90
46492;DHT22;32206;51.446;6.792;2023-06-05T14:04:11;28.00;99.90
46492;DHT22;32206;51.446;6.792;2023-06-05T14:06:37;28.00;99.90
46492;DHT22;32206;51.446;6.792;2023-06-05T14:09:05;28.10;99.90
46492;DHT22;32206;51.446;6.792;2023-06-05T14:11:31;28.20;99.90
46492;DHT22;32206;51.446;6.792;2023-06-05T14:13:56;28.00;99.90
46492;DHT22;32206;51.446;6.792;2023-06-05T14:16:22;27.90;99.90
46492;DHT22;32206;51.446;6.792;2023-06-05T14:18:48;28.00;99.90
46492;DHT22;32206;51.446;6.792;2023-06-05T14:21:14;27.90;99.90
46492;DHT22;32206;51.446;6.792;2023-06-05T14:23:41;28.00;99.90
46492;DHT22;32206;51.446;6.792;2023-06-05T14:26:08;28.10;99.90
46492;DHT22;32206;51.446;6.792;2023-06-05T14:28:35;27.90;99.90
46492;DHT22;32206;51.446;6.792;2023-06-05T14:31:01;28.00;99.90
46492;DHT22;32206;51.446;6.792;2023-06-05T14:33:26;28.00;99.90
46492;DHT22;32206;51.446;6.792;2023-06-05T14:35:52;28.10;99.90
46492;DHT22;32206;51.446;6.792;2023-06-05T14:38:18;28.00;99.90
46492;DHT22;32206;51.446;6.792;2023-06-05T14:40:43;27.90;99.90
46492;DHT22;32206;51.446;6.792;2023-06-05T14:43:09;27.90;99.90
46492;DHT22;32206;51.446;6.792;2023-06-05T14:45:35;28.00;99.90
46492;DHT22;32206;51.446;6.792;2023-06-05T14:48:01;28.10;99.90
46492;DHT22;32206;51.446;6.792;2023-06-05T14:50:26;28.00;99.90
46492;DHT22;32206;51.446;6.792;2023-06-05T14:52:52;28.00;99.90
46492;DHT22;32206;51.446;6.792;2023-06-05T14:55:18;28.00;99.90
46492;DHT22;32206;51.446;6.792;2023-06-05T14:57:44;28.10;99.90
46492;DHT22;32206;51.446;6.792;2023-06-05T15:00:10;28.00;99.90
46492;DHT22;32206;51.446;6.792;2023-06-05T15:02:36;28.00;99.90
46492;DHT22;32206;51.446;6.792;2023-06-05T15:05:02;28.10;99.90
46492;DHT22;32206;51.446;6.792;2023-06-05T15:07:41;28.20;99.90
46492;DHT22;32206;51.446;6.792;2023-06-05T15:10:08;28.10;99.90
46492;DHT22;32206;51.446;6.792;2023-06-05T15:12:37;28.10;99.90
46492;DHT22;32206;51.446;6.792;2023-06-05T15:15:05;28.10;99.90
46492;DHT22;32206;51.446;6.792;2023-06-05T15:17:31;27.90;99.90
46492;DHT22;32206;51.446;6.792;2023-06-05T15:19:57;27.90;99.90
46492;DHT22;32206;51.446;6.792;2023-06-05T15:22:23;27.90;99.90
46492;DHT22;32206;51.446;6.792;2023-06-05T15:24:49;27.80;99.90
46492;DHT22;32206;51.446;6.792;2023-06-05T15:27:14;27.80;99.90
46492;DHT22;32206;51.446;6.792;2023-06-05T15:29:40;27.70;99.90
46492;DHT22;32206;51.446;6.792;2023-06-05T15:32:06;27.60;99.90
46492;DHT22;32206;51.446;6.792;2023-06-05T15:34:40;27.40;99.90
46492;DHT22;32206;51.446;6.792;2023-06-05T15:37:06;27.20;99.90
46492;DHT22;32206;51.446;6.792;2023-06-05T15:39:32;27.30;99.90
46492;DHT22;32206;51.446;6.792;2023-06-05T15:41:58;27.40;99.90
46492;DHT22;32206;51.446;6.792;2023-06-05T15:44:24;27.50;99.90
46492;DHT22;32206;51.446;6.792;2023-06-05T15:46:49;27.50;99.90
46492;DHT22;32206;51.446;6.792;2023-06-05T15:52:38;27.50;99.90
46492;DHT22;32206;51.446;6.792;2023-06-05T15:55:05;27.50;99.90
46492;DHT22;32206;51.446;6.792;2023-06-05T15:57:31;27.40;99.90
46492;DHT22;32206;51.446;6.792;2023-06-05T15:59:56;27.40;99.90
46492;DHT22;32206;51.446;6.792;2023-06-05T16:02:22;27.40;99.90
46492;DHT22;32206;51.446;6.792;2023-06-05T16:04:48;27.40;99.90
46492;DHT22;32206;51.446;6.792;2023-06-05T16:07:14;27.50;99.90
46492;DHT22;32206;51.446;6.792;2023-06-05T16:09:44;27.30;99.90
46492;DHT22;32206;51.446;6.792;2023-06-05T16:12:10;27.30;99.90
46492;DHT22;32206;51.446;6.792;2023-06-05T16:14:36;27.20;99.90
46492;DHT22;32206;51.446;6.792;2023-06-05T16:17:03;27.30;99.90
46492;DHT22;32206;51.446;6.792;2023-06-05T16:19:30;27.40;99.90
46492;DHT22;32206;51.446;6.792;2023-06-05T16:21:55;27.40;99.90
46492;DHT22;32206;51.446;6.792;2023-06-05T16:24:23;27.40;99.90
46492;DHT22;32206;51.446;6.792;2023-06-05T16:26:49;27.40;99.90
46492;DHT22;32206;51.446;6.792;2023-06-05T16:29:15;27.40;99.90
46492;DHT22;32206;51.446;6.792;2023-06-05T16:31:41;27.50;99.90
46492;DHT22;32206;51.446;6.792;2023-06-05T16:34:11;27.40;99.90
46492;DHT22;32206;51.446;6.792;2023-06-05T16:36:37;27.40;99.90
46492;DHT22;32206;51.446;6.792;2023-06-05T16:42:25;27.40;99.90
46492;DHT22;32206;51.446;6.792;2023-06-05T16:44:52;27.40;99.90
46492;DHT22;32206;51.446;6.792;2023-06-05T16:47:17;27.30;99.90
46492;DHT22;32206;51.446;6.792;2023-06-05T16:53:08;27.20;99.90
46492;DHT22;32206;51.446;6.792;2023-06-05T16:58:56;27.10;99.90
46492;DHT22;32206;51.446;6.792;2023-06-05T17:01:22;27.00;99.90